createdAt,value
2022-10-31T00:01:50.855Z,78.97
2022-10-31T00:04:18.082Z,78.46
2022-10-31T00:06:45.335Z,78.19
2022-10-31T00:09:12.783Z,78.26
2022-10-31T00:11:39.947Z,78.37
2022-10-31T00:14:07.267Z,78.29
2022-10-31T00:16:34.562Z,78.30
2022-10-31T00:19:03.623Z,78.41
2022-10-31T00:21:31.404Z,78.67
2022-10-31T00:23:59.698Z,78.59
2022-10-31T00:26:30.010Z,78.11
2022-10-31T00:28:57.777Z,77.88
2022-10-31T00:31:25.297Z,77.62
2022-10-31T00:33:52.457Z,77.49
2022-10-31T00:36:20.571Z,77.51
2022-10-31T00:38:48.310Z,77.42
2022-10-31T00:41:16.960Z,77.69
2022-10-31T00:43:44.159Z,77.66
2022-10-31T00:46:11.926Z,77.35
2022-10-31T00:48:39.119Z,77.54
2022-10-31T00:51:06.773Z,77.68
2022-10-31T00:53:34.322Z,77.65
2022-10-31T00:56:20.638Z,77.84
2022-10-31T00:58:48.265Z,77.64
2022-10-31T01:01:15.620Z,77.44
2022-10-31T01:03:42.993Z,77.57
2022-10-31T01:06:13.850Z,77.57
2022-10-31T01:08:41.166Z,77.76
2022-10-31T01:11:13.092Z,77.73
2022-10-31T01:13:41.543Z,77.65
2022-10-31T01:16:10.888Z,78.81
2022-10-31T01:18:38.156Z,78.66
2022-10-31T01:21:10.487Z,78.84
2022-10-31T01:23:37.722Z,78.81
2022-10-31T01:26:05.423Z,78.74
2022-10-31T01:28:33.687Z,79.01
2022-10-31T01:31:01.535Z,78.72
2022-10-31T01:33:28.700Z,78.70
2022-10-31T01:35:55.994Z,78.93
2022-10-31T01:38:24.041Z,79.09
2022-10-31T01:40:51.721Z,79.27
2022-10-31T01:45:54.685Z,79.30
2022-10-31T01:48:25.331Z,79.81
2022-10-31T01:50:54.234Z,80.92
2022-10-31T01:53:25.883Z,81.52
2022-10-31T01:55:54.392Z,80.84
2022-10-31T01:58:24.929Z,80.73
2022-10-31T02:00:54.906Z,81.19
2022-10-31T02:03:23.129Z,81.61
2022-10-31T02:05:51.037Z,81.39
2022-10-31T02:08:28.269Z,81.44
2022-10-31T02:10:55.908Z,81.42
2022-10-31T02:15:55.103Z,81.49
2022-10-31T02:18:23.523Z,81.79
2022-10-31T02:21:03.241Z,82.01
2022-10-31T02:24:07.187Z,81.62
2022-10-31T02:26:44.956Z,81.88
2022-10-31T02:29:12.212Z,81.87
2022-10-31T02:31:39.507Z,81.94
2022-10-31T02:34:20.537Z,81.80
2022-10-31T02:37:07.290Z,81.82
2022-10-31T02:39:34.504Z,81.94
2022-10-31T02:42:15.040Z,82.33
2022-10-31T02:44:52.232Z,82.69
2022-10-31T02:47:22.876Z,82.53
2022-10-31T02:50:06.851Z,82.66
2022-10-31T02:52:34.818Z,83.04
2022-10-31T02:55:12.952Z,82.95
2022-10-31T02:57:43.345Z,82.56
2022-10-31T03:00:10.959Z,82.44
2022-10-31T03:02:57.128Z,82.53
2022-10-31T03:05:43.337Z,82.67
2022-10-31T03:08:24.776Z,83.16
2022-10-31T03:10:57.934Z,83.61
2022-10-31T03:13:38.014Z,83.13
2022-10-31T03:16:11.395Z,83.63
2022-10-31T03:18:43.684Z,83.14
2022-10-31T03:21:13.021Z,82.97
2022-10-31T03:23:41.292Z,83.67
2022-10-31T03:26:09.457Z,83.75
2022-10-31T03:28:58.664Z,83.61
2022-10-31T03:31:28.745Z,83.25
2022-10-31T03:33:58.432Z,83.15
2022-10-31T03:36:25.812Z,82.80
2022-10-31T03:38:53.510Z,82.92
2022-10-31T03:41:24.306Z,83.24
2022-10-31T03:44:03.821Z,83.08
2022-10-31T03:46:31.081Z,83.07
2022-10-31T03:48:59.658Z,83.26
2022-10-31T03:51:31.307Z,83.40
2022-10-31T03:54:10.682Z,83.44
2022-10-31T03:56:45.977Z,83.21
2022-10-31T03:59:27.022Z,83.43
2022-10-31T04:01:57.979Z,83.32
2022-10-31T04:04:25.926Z,83.55
2022-10-31T04:06:54.332Z,83.64
2022-10-31T04:09:22.073Z,83.94
2022-10-31T04:11:51.960Z,83.76
2022-10-31T04:14:34.490Z,83.63
2022-10-31T04:17:03.924Z,83.62
2022-10-31T04:19:36.290Z,84.00
2022-10-31T04:22:03.493Z,83.97
2022-10-31T04:24:30.635Z,83.70
2022-10-31T04:26:58.660Z,83.79
2022-10-31T04:29:26.193Z,83.26
2022-10-31T04:31:53.988Z,83.18
2022-10-31T04:34:22.013Z,83.33
2022-10-31T04:36:50.455Z,83.60
2022-10-31T04:39:22.653Z,83.51
2022-10-31T04:42:24.898Z,83.78
2022-10-31T04:44:52.817Z,84.20
2022-10-31T04:47:19.952Z,84.26
2022-10-31T04:49:47.094Z,84.27
2022-10-31T04:52:14.660Z,84.28
2022-10-31T04:54:41.840Z,84.62
2022-10-31T04:57:27.852Z,84.68
2022-10-31T04:59:55.919Z,84.98
2022-10-31T05:02:24.873Z,84.96
2022-10-31T05:04:56.230Z,85.55
2022-10-31T05:07:23.687Z,85.44
2022-10-31T05:09:50.983Z,86.01
2022-10-31T05:12:19.851Z,85.56
2022-10-31T05:15:23.078Z,85.53
2022-10-31T05:18:09.081Z,85.53
2022-10-31T05:20:56.185Z,85.58
2022-10-31T05:23:36.556Z,85.12
2022-10-31T05:26:06.162Z,85.23
2022-10-31T05:28:34.357Z,85.01
2022-10-31T05:31:02.923Z,85.27
2022-10-31T05:33:31.274Z,85.08
2022-10-31T05:36:21.507Z,85.22
2022-10-31T05:38:55.180Z,85.51
2022-10-31T05:41:26.924Z,85.37
2022-10-31T05:44:03.091Z,85.66
2022-10-31T05:49:03.053Z,85.63
2022-10-31T05:51:49.289Z,85.62
2022-10-31T05:54:16.555Z,85.33
2022-10-31T05:56:46.178Z,85.25
2022-10-31T05:59:13.320Z,85.17
2022-10-31T06:01:41.264Z,85.91
2022-10-31T06:04:22.315Z,85.35
2022-10-31T06:06:49.503Z,84.91
2022-10-31T06:09:17.071Z,85.02
2022-10-31T06:11:45.300Z,85.60
2022-10-31T06:14:27.329Z,85.62
2022-10-31T06:16:56.941Z,85.82
2022-10-31T06:19:42.663Z,86.00
2022-10-31T06:22:14.781Z,85.92
2022-10-31T06:24:44.075Z,86.40
2022-10-31T06:27:22.162Z,86.06
2022-10-31T06:29:49.810Z,86.32
2022-10-31T06:32:32.079Z,86.20
2022-10-31T06:34:59.349Z,85.86
2022-10-31T06:37:26.549Z,85.52
2022-10-31T06:39:59.468Z,85.43
2022-10-31T06:42:26.579Z,85.16
2022-10-31T06:44:53.695Z,85.27
2022-10-31T06:48:15.456Z,84.92
2022-10-31T06:51:02.991Z,84.82
2022-10-31T06:53:30.779Z,84.74
2022-10-31T06:55:58.369Z,84.67
2022-10-31T06:58:26.078Z,84.78
2022-10-31T07:00:59.799Z,84.65
2022-10-31T07:03:27.484Z,84.66
2022-10-31T07:05:56.090Z,84.45
2022-10-31T07:08:23.518Z,84.05
2022-10-31T07:10:52.662Z,84.60
2022-10-31T07:13:25.631Z,83.93
2022-10-31T07:16:02.551Z,83.87
2022-10-31T07:18:34.389Z,85.29
2022-10-31T07:21:01.507Z,86.23
2022-10-31T07:23:28.820Z,85.23
2022-10-31T07:26:31.807Z,84.55
2022-10-31T07:29:00.085Z,84.24
2022-10-31T07:31:28.783Z,84.09
2022-10-31T07:34:18.927Z,84.03
2022-10-31T07:37:16.559Z,82.77
2022-10-31T07:39:43.748Z,82.05
2022-10-31T07:42:10.943Z,81.76
2022-10-31T07:44:43.948Z,81.18
2022-10-31T07:47:52.819Z,82.23
2022-10-31T07:50:38.549Z,81.57
2022-10-31T07:53:24.497Z,82.40
2022-10-31T07:55:59.040Z,81.95
2022-10-31T07:58:30.251Z,73.10
2022-10-31T08:00:59.650Z,64.50
2022-10-31T08:03:34.893Z,62.00
2022-10-31T08:06:28.066Z,63.21
2022-10-31T08:09:04.119Z,60.39
2022-10-31T08:11:32.409Z,56.91
2022-10-31T08:14:03.164Z,56.81
2022-10-31T08:16:30.379Z,53.75
2022-10-31T08:19:01.623Z,50.52
2022-10-31T08:21:33.708Z,52.99
2022-10-31T08:24:01.688Z,52.58
2022-10-31T08:26:29.752Z,51.37
2022-10-31T08:28:57.590Z,50.91
2022-10-31T08:31:33.148Z,51.53
2022-10-31T08:34:20.410Z,52.88
2022-10-31T08:37:05.998Z,56.05
2022-10-31T08:39:41.257Z,58.06
2022-10-31T08:42:08.478Z,59.55
2022-10-31T08:44:35.540Z,61.92
2022-10-31T08:47:04.706Z,63.65
2022-10-31T08:49:34.227Z,65.20
2022-10-31T08:52:01.493Z,65.42
2022-10-31T08:54:33.731Z,64.40
2022-10-31T08:57:34.297Z,64.47
2022-10-31T09:00:02.075Z,64.25
2022-10-31T09:02:47.868Z,64.30
2022-10-31T09:05:15.099Z,65.35
2022-10-31T09:07:42.304Z,65.85
2022-10-31T09:10:09.613Z,66.36
2022-10-31T09:12:38.489Z,66.88
2022-10-31T09:15:24.645Z,66.02
2022-10-31T09:17:57.788Z,66.27
2022-10-31T09:20:32.246Z,66.68
2022-10-31T09:23:00.381Z,66.02
2022-10-31T09:25:28.970Z,66.22
2022-10-31T09:28:20.505Z,66.42
2022-10-31T09:30:51.900Z,65.77
2022-10-31T09:33:36.902Z,65.84
2022-10-31T09:36:24.226Z,65.37
2022-10-31T09:38:52.473Z,65.97
2022-10-31T09:41:22.819Z,65.90
2022-10-31T09:44:02.944Z,66.50
2022-10-31T09:46:37.078Z,66.28
2022-10-31T09:49:30.548Z,66.13
2022-10-31T09:54:44.727Z,65.88
2022-10-31T09:57:14.618Z,66.51
2022-10-31T09:59:44.954Z,66.74
2022-10-31T10:02:31.025Z,66.63
2022-10-31T10:05:00.519Z,66.17
2022-10-31T10:07:33.666Z,65.90
2022-10-31T10:10:25.786Z,65.35
2022-10-31T10:13:31.398Z,65.05
2022-10-31T10:16:01.830Z,64.91
2022-10-31T10:18:37.983Z,64.70
2022-10-31T10:21:18.104Z,64.60
2022-10-31T10:23:56.537Z,64.55
2022-10-31T10:26:29.829Z,64.06
2022-10-31T10:29:04.158Z,64.04
2022-10-31T10:31:36.153Z,63.90
2022-10-31T10:34:23.688Z,63.63
2022-10-31T10:37:03.289Z,63.58
2022-10-31T10:39:39.630Z,63.03
2022-10-31T10:42:32.739Z,63.28
2022-10-31T10:45:19.118Z,62.88
2022-10-31T10:47:56.167Z,62.34
2022-10-31T10:50:33.729Z,62.80
2022-10-31T10:53:22.243Z,62.61
2022-10-31T10:55:55.167Z,62.63
2022-10-31T10:58:22.476Z,62.26
2022-10-31T11:00:50.955Z,62.43
2022-10-31T11:03:19.031Z,63.30
2022-10-31T11:05:53.674Z,62.51
2022-10-31T11:08:27.991Z,62.42
2022-10-31T11:11:04.234Z,62.75
2022-10-31T11:13:32.427Z,62.38
2022-10-31T11:16:04.529Z,61.88
2022-10-31T11:18:32.904Z,61.50
2022-10-31T11:21:01.628Z,61.28
2022-10-31T11:23:29.700Z,60.99
2022-10-31T11:26:01.575Z,60.08
2022-10-31T11:28:33.319Z,60.17
2022-10-31T11:31:01.294Z,59.73
2022-10-31T11:33:34.339Z,59.47
2022-10-31T11:36:03.395Z,59.42
2022-10-31T11:38:44.368Z,59.26
2022-10-31T11:41:16.846Z,58.89
2022-10-31T11:44:07.605Z,58.74
2022-10-31T11:46:36.855Z,59.21
2022-10-31T11:49:04.606Z,59.51
2022-10-31T11:51:33.920Z,59.87
2022-10-31T11:54:05.559Z,59.33
2022-10-31T11:56:39.896Z,58.17
2022-10-31T11:59:15.929Z,58.95
2022-10-31T12:01:47.895Z,58.71
2022-10-31T12:04:15.431Z,58.01
2022-10-31T12:06:47.167Z,57.28
2022-10-31T12:09:33.553Z,57.40
2022-10-31T12:12:10.512Z,56.98
2022-10-31T12:14:43.636Z,57.36
2022-10-31T12:17:25.601Z,57.08
2022-10-31T12:20:08.111Z,57.58
2022-10-31T12:22:39.905Z,57.89
2022-10-31T12:25:13.470Z,58.75
2022-10-31T12:27:50.890Z,59.28
2022-10-31T12:30:28.738Z,59.39
2022-10-31T12:32:56.417Z,58.95
2022-10-31T12:35:32.873Z,58.85
2022-10-31T12:38:09.231Z,58.93
2022-10-31T12:40:48.602Z,58.58
2022-10-31T12:43:30.830Z,58.55
2022-10-31T12:45:59.049Z,58.22
2022-10-31T12:48:46.211Z,58.02
2022-10-31T12:51:13.557Z,57.00
2022-10-31T12:53:46.773Z,56.79
2022-10-31T12:56:23.803Z,57.04
2022-10-31T12:59:11.183Z,57.20
2022-10-31T13:01:42.508Z,57.67
2022-10-31T13:04:12.865Z,57.95
2022-10-31T13:06:45.075Z,57.84
2022-10-31T13:09:20.648Z,57.94
2022-10-31T13:12:03.328Z,56.95
2022-10-31T13:14:34.297Z,56.35
2022-10-31T13:17:02.446Z,55.32
2022-10-31T13:19:33.269Z,55.85
2022-10-31T13:22:18.806Z,55.92
2022-10-31T13:24:51.964Z,56.24
2022-10-31T13:27:22.879Z,56.07
2022-10-31T13:30:04.984Z,55.86
2022-10-31T13:32:50.458Z,56.38
2022-10-31T13:35:21.982Z,57.10
2022-10-31T13:38:04.447Z,56.87
2022-10-31T13:40:52.783Z,56.41
2022-10-31T13:43:38.461Z,55.60
2022-10-31T13:46:23.606Z,55.71
2022-10-31T13:48:50.794Z,55.75
2022-10-31T13:51:26.316Z,55.24
2022-10-31T13:53:54.491Z,55.35
2022-10-31T13:56:24.568Z,55.65
2022-10-31T13:58:57.872Z,55.23
2022-10-31T14:01:25.233Z,55.00
2022-10-31T14:04:22.190Z,55.41
2022-10-31T14:06:58.348Z,54.60
2022-10-31T14:09:34.381Z,55.16
2022-10-31T14:12:15.446Z,54.76
2022-10-31T14:14:45.126Z,54.69
2022-10-31T14:17:20.433Z,54.98
2022-10-31T14:20:06.352Z,55.12
2022-10-31T14:22:37.411Z,55.50
2022-10-31T14:25:27.926Z,55.44
2022-10-31T14:27:55.192Z,55.30
2022-10-31T14:30:23.986Z,55.70
2022-10-31T14:33:02.259Z,55.75
2022-10-31T14:35:47.391Z,55.78
2022-10-31T14:38:24.928Z,56.27
2022-10-31T14:41:10.943Z,55.87
2022-10-31T14:43:56.307Z,56.11
2022-10-31T14:46:43.511Z,56.49
2022-10-31T14:49:16.773Z,56.03
2022-10-31T14:51:45.611Z,56.43
2022-10-31T14:54:19.393Z,56.47
2022-10-31T14:56:59.274Z,56.96
2022-10-31T14:59:29.629Z,57.24
2022-10-31T15:02:01.191Z,57.69
2022-10-31T15:04:30.026Z,57.69
2022-10-31T15:07:24.351Z,58.06
2022-10-31T15:10:02.604Z,57.74
2022-10-31T15:12:31.016Z,57.63
2022-10-31T15:14:59.740Z,58.01
2022-10-31T15:17:27.275Z,58.01
2022-10-31T15:19:54.647Z,58.17
2022-10-31T15:22:24.702Z,58.30
2022-10-31T15:24:57.368Z,58.45
2022-10-31T15:27:25.424Z,58.76
2022-10-31T15:29:56.582Z,58.79
2022-10-31T15:32:23.936Z,59.34
2022-10-31T15:34:52.813Z,59.31
2022-10-31T15:37:21.438Z,59.52
2022-10-31T15:39:49.485Z,59.49
2022-10-31T15:42:25.186Z,59.50
2022-10-31T15:45:21.888Z,59.94
2022-10-31T15:48:00.190Z,60.22
2022-10-31T15:50:41.526Z,60.40
2022-10-31T15:53:32.139Z,60.35
2022-10-31T15:56:01.547Z,60.53
2022-10-31T15:58:29.634Z,60.80
2022-10-31T16:01:20.972Z,60.92
2022-10-31T16:04:00.718Z,61.21
2022-10-31T16:06:28.200Z,61.20
2022-10-31T16:08:55.561Z,61.42
2022-10-31T16:11:25.823Z,61.31
2022-10-31T16:13:58.198Z,61.13
2022-10-31T16:16:41.226Z,61.60
2022-10-31T16:19:15.578Z,61.79
2022-10-31T16:21:42.902Z,62.03
2022-10-31T16:24:26.070Z,62.15
2022-10-31T16:26:54.880Z,62.86
2022-10-31T16:29:43.788Z,63.34
2022-10-31T16:32:29.552Z,63.45
2022-10-31T16:35:11.784Z,63.94
2022-10-31T16:37:42.486Z,64.15
2022-10-31T16:40:16.717Z,64.25
2022-10-31T16:42:44.633Z,64.41
2022-10-31T16:45:17.091Z,64.32
2022-10-31T16:47:45.097Z,64.75
2022-10-31T16:50:16.678Z,64.87
2022-10-31T16:53:15.184Z,65.12
2022-10-31T16:55:45.334Z,65.35
2022-10-31T16:58:22.943Z,65.47
2022-10-31T17:00:50.366Z,65.95
2022-10-31T17:03:17.587Z,66.21
2022-10-31T17:05:44.796Z,66.38
2022-10-31T17:08:12.174Z,66.44
2022-10-31T17:10:40.503Z,66.53
2022-10-31T17:13:11.630Z,66.83
2022-10-31T17:15:42.321Z,67.08
2022-10-31T17:18:12.156Z,67.65
2022-10-31T17:20:39.575Z,67.80
2022-10-31T17:23:06.793Z,68.23
2022-10-31T17:25:33.971Z,68.11
2022-10-31T17:28:01.095Z,68.24
2022-10-31T17:30:28.216Z,68.68
2022-10-31T17:32:55.474Z,69.54
2022-10-31T17:35:22.622Z,69.74
2022-10-31T17:37:50.202Z,69.86
2022-10-31T17:40:18.867Z,70.13
2022-10-31T17:42:53.012Z,70.39
2022-10-31T17:45:20.639Z,70.94
2022-10-31T17:47:49.027Z,71.39
2022-10-31T17:50:17.162Z,71.80
2022-10-31T17:52:44.294Z,72.17
2022-10-31T17:55:11.506Z,72.93
2022-10-31T17:57:39.142Z,73.04
2022-10-31T18:00:07.580Z,73.58
2022-10-31T18:02:38.679Z,74.07
2022-10-31T18:05:06.638Z,74.16
2022-10-31T18:07:33.803Z,74.22
2022-10-31T18:10:00.990Z,74.37
2022-10-31T18:12:29.007Z,74.72
2022-10-31T18:14:56.262Z,74.94
2022-10-31T18:17:23.657Z,75.04
2022-10-31T18:19:50.788Z,75.35
2022-10-31T18:22:17.883Z,76.18
2022-10-31T18:24:45.011Z,77.54
2022-10-31T18:27:12.219Z,78.55
2022-10-31T18:29:39.407Z,79.30
2022-10-31T18:32:09.457Z,79.87
2022-10-31T18:34:36.896Z,80.07
2022-10-31T18:37:04.182Z,79.73
2022-10-31T18:39:31.358Z,80.32
2022-10-31T18:41:58.547Z,80.77
2022-10-31T18:44:26.719Z,81.35
2022-10-31T18:46:54.158Z,82.18
2022-10-31T18:49:23.937Z,82.09
2022-10-31T18:51:51.178Z,81.89
2022-10-31T18:54:18.442Z,81.84
2022-10-31T18:56:45.611Z,82.45
2022-10-31T18:59:13.532Z,82.60
2022-10-31T19:01:41.173Z,83.40
2022-10-31T19:04:10.647Z,83.59
2022-10-31T19:06:37.803Z,83.62
2022-10-31T19:09:06.219Z,82.97
2022-10-31T19:11:33.966Z,82.69
2022-10-31T19:14:01.190Z,82.50
2022-10-31T19:16:29.066Z,82.62
2022-10-31T19:18:57.271Z,82.64
2022-10-31T19:21:24.496Z,82.31
2022-10-31T19:23:52.842Z,82.54
2022-10-31T19:26:20.040Z,82.65
2022-10-31T19:28:47.401Z,82.46
2022-10-31T19:31:14.616Z,82.12
2022-10-31T19:33:41.780Z,82.22
2022-10-31T19:36:10.962Z,82.31
2022-10-31T19:38:38.845Z,82.84
2022-10-31T19:41:07.762Z,83.39
2022-10-31T19:43:35.034Z,83.54
2022-10-31T19:46:03.680Z,83.15
2022-10-31T19:48:31.196Z,82.80
2022-10-31T19:51:02.461Z,83.09
2022-10-31T19:53:30.490Z,83.00
2022-10-31T19:55:58.120Z,83.24
2022-10-31T19:58:25.682Z,83.36
2022-10-31T20:00:52.986Z,84.34
2022-10-31T20:03:22.522Z,84.11
2022-10-31T20:05:50.743Z,83.81
2022-10-31T20:08:19.399Z,83.83
2022-10-31T20:10:59.974Z,83.93
2022-10-31T20:13:27.777Z,83.48
2022-10-31T20:15:58.402Z,83.63
2022-10-31T20:18:25.827Z,83.47
2022-10-31T20:20:53.403Z,83.36
2022-10-31T20:23:20.657Z,83.35
2022-10-31T20:25:48.651Z,83.37
2022-10-31T20:28:16.123Z,83.03
2022-10-31T20:30:43.897Z,82.78
2022-10-31T20:33:11.910Z,82.33
2022-10-31T20:35:39.654Z,82.35
2022-10-31T20:38:07.411Z,82.34
2022-10-31T20:40:35.410Z,82.13
2022-10-31T20:43:03.457Z,82.38
2022-10-31T20:45:31.024Z,81.98
2022-10-31T20:47:58.656Z,82.08
2022-10-31T20:50:26.155Z,82.18
2022-10-31T20:52:53.925Z,82.03
2022-10-31T20:55:21.273Z,81.69
2022-10-31T20:57:51.758Z,81.74
2022-10-31T21:00:18.968Z,81.69
2022-10-31T21:02:46.054Z,81.57
2022-10-31T21:05:13.619Z,82.01
2022-10-31T21:07:40.890Z,82.48
2022-10-31T21:10:14.812Z,82.19
2022-10-31T21:12:43.094Z,82.31
2022-10-31T21:15:11.368Z,82.94
2022-10-31T21:17:38.621Z,83.19
2022-10-31T21:20:06.785Z,83.50
2022-10-31T21:22:34.692Z,84.05
2022-10-31T21:25:02.103Z,84.51
2022-10-31T21:27:29.399Z,84.48
2022-10-31T21:29:56.599Z,83.87
2022-10-31T21:32:23.738Z,84.12
2022-10-31T21:34:50.987Z,84.05
2022-10-31T21:37:18.180Z,83.76
2022-10-31T21:39:49.750Z,83.20
2022-10-31T21:42:21.351Z,83.13
2022-10-31T21:44:51.754Z,83.31
2022-10-31T21:47:18.983Z,83.34
2022-10-31T21:49:46.092Z,83.24
2022-10-31T21:52:13.322Z,83.06
2022-10-31T21:54:40.492Z,82.81
2022-10-31T21:57:07.638Z,83.00
2022-10-31T21:59:34.831Z,83.15
2022-10-31T22:02:02.276Z,83.18
2022-10-31T22:04:29.611Z,83.03
2022-10-31T22:06:56.808Z,83.04
2022-10-31T22:09:23.955Z,83.43
2022-10-31T22:11:51.106Z,83.82
2022-10-31T22:14:18.207Z,84.03
2022-10-31T22:16:45.307Z,83.72
2022-10-31T22:19:13.345Z,83.66
2022-10-31T22:21:41.811Z,83.74
2022-10-31T22:24:09.579Z,83.26
2022-10-31T22:26:37.218Z,83.22
2022-10-31T22:29:05.717Z,83.66
2022-10-31T22:31:33.503Z,83.74
2022-10-31T22:34:01.100Z,83.72
2022-10-31T22:36:30.006Z,83.39
2022-10-31T22:38:57.441Z,83.37
2022-10-31T22:41:26.215Z,83.29
2022-10-31T22:43:53.841Z,82.88
2022-10-31T22:46:22.860Z,83.01
2022-10-31T22:48:54.076Z,82.92
2022-10-31T22:51:22.751Z,83.10
2022-10-31T22:53:50.215Z,83.77
2022-10-31T22:56:19.283Z,83.08
2022-10-31T22:58:46.961Z,83.04
2022-10-31T23:01:15.367Z,82.95
2022-10-31T23:03:43.047Z,82.81
2022-10-31T23:06:11.682Z,82.65
2022-10-31T23:08:38.904Z,82.20
2022-10-31T23:11:24.859Z,81.86
2022-10-31T23:14:11.999Z,81.78
2022-10-31T23:16:42.224Z,81.44
2022-10-31T23:19:10.869Z,81.97
2022-10-31T23:22:00.265Z,82.06
2022-10-31T23:24:27.999Z,81.83
2022-10-31T23:27:08.688Z,82.26
2022-10-31T23:29:48.108Z,83.03
2022-10-31T23:32:17.757Z,83.13
2022-10-31T23:34:45.515Z,83.58
2022-10-31T23:37:13.160Z,84.02
2022-10-31T23:39:41.117Z,84.00
2022-10-31T23:42:08.597Z,83.97
2022-10-31T23:44:35.767Z,83.46
2022-10-31T23:47:03.176Z,83.16
2022-10-31T23:49:30.347Z,83.26
2022-10-31T23:51:58.046Z,82.96
2022-10-31T23:54:25.993Z,83.17
2022-10-31T23:56:53.682Z,82.62
2022-10-31T23:59:22.820Z,82.52
